Wimberley, Texas
Current Conditions -  °F | °C
As of 10:01 AM on Friday 28 Nov 2014 (Local Time) from KBAZ Reporting Station
Scattered Clouds Scattered Clouds  
Wind Chill: 59°   Ceiling: Unl
Heat Index: 59°   Visibility: 10mi
Dew Point: 51°   Wind: 7mph
Humidity: 75%   Direction: 210°SSW
Pressure: 30.31"   Gusts: NA
Location:  29.99°N, 98.1°W
Report Text: KBAZ 281601Z 21006KT 10SM SCT008 15/11 A3031 RMK AO2 T01500106
Loading
Personal Weather Stations






























Interactive Weather Map New forecast layout! Learn more

10-Day Weather Forecast

Advertisements
Track Severe Weather on mobile